createdAt,value
2018-08-31T00:02:38.152Z,15.20
2018-08-31T00:05:53.833Z,15.20
2018-08-31T00:11:52.023Z,15.20
2018-08-31T00:14:21.426Z,15.10
2018-08-31T00:16:50.886Z,15.10
2018-08-31T00:19:20.291Z,15.10
2018-08-31T00:21:49.941Z,15.10
2018-08-31T00:24:36.386Z,15.00
2018-08-31T00:27:22.975Z,15.00
2018-08-31T00:30:09.567Z,15.00
2018-08-31T00:35:36.112Z,15.00
2018-08-31T00:39:53.707Z,15.00
2018-08-31T00:42:40.195Z,14.80
2018-08-31T00:45:41.404Z,14.80
2018-08-31T00:48:10.898Z,14.80
2018-08-31T00:50:40.393Z,14.70
2018-08-31T00:53:09.742Z,14.60
2018-08-31T00:55:39.172Z,14.60
2018-08-31T00:58:08.530Z,14.60
2018-08-31T01:00:37.986Z,14.60
2018-08-31T01:03:07.338Z,14.60
2018-08-31T01:05:36.703Z,14.60
2018-08-31T01:08:06.208Z,14.60
2018-08-31T01:10:35.696Z,14.60
2018-08-31T01:13:05.053Z,14.60
2018-08-31T01:15:34.506Z,14.60
2018-08-31T01:18:03.906Z,14.60
2018-08-31T01:20:33.325Z,14.60
2018-08-31T01:23:02.694Z,14.60
2018-08-31T01:25:33.480Z,14.40
2018-08-31T01:28:03.301Z,14.40
2018-08-31T01:30:32.758Z,14.40
2018-08-31T01:33:02.111Z,14.40
2018-08-31T01:35:32.616Z,14.40
2018-08-31T01:38:02.020Z,14.40
2018-08-31T01:40:31.525Z,14.40
2018-08-31T01:43:00.959Z,14.40
2018-08-31T01:45:30.514Z,14.40
2018-08-31T01:47:59.886Z,14.40
2018-08-31T01:50:29.295Z,14.50
2018-08-31T01:52:58.685Z,14.50
2018-08-31T01:55:31.126Z,14.50
2018-08-31T01:58:02.011Z,14.60
2018-08-31T02:00:31.410Z,14.60
2018-08-31T02:03:00.787Z,14.60
2018-08-31T02:05:30.233Z,14.60
2018-08-31T02:07:59.602Z,14.60
2018-08-31T02:10:29.017Z,14.60
2018-08-31T02:12:58.400Z,14.60
2018-08-31T02:15:27.843Z,14.60
2018-08-31T02:17:57.221Z,14.60
2018-08-31T02:20:26.632Z,14.70
2018-08-31T02:22:55.989Z,14.70
2018-08-31T02:25:25.463Z,14.60
2018-08-31T02:27:54.821Z,14.60
2018-08-31T02:30:24.394Z,14.60
2018-08-31T02:32:53.783Z,14.60
2018-08-31T02:35:23.254Z,14.60
2018-08-31T02:37:52.644Z,14.60
2018-08-31T02:40:22.074Z,14.50
2018-08-31T02:42:51.473Z,14.50
2018-08-31T02:45:21.005Z,14.40
2018-08-31T02:47:50.345Z,14.40
2018-08-31T02:50:19.803Z,14.20
2018-08-31T02:52:49.167Z,14.10
2018-08-31T02:55:18.598Z,14.10
2018-08-31T02:57:47.954Z,14.00
2018-08-31T03:00:17.499Z,14.00
2018-08-31T03:02:46.866Z,14.00
2018-08-31T03:05:16.299Z,14.10
2018-08-31T03:07:45.664Z,14.10
2018-08-31T03:10:15.050Z,14.10
2018-08-31T03:12:44.500Z,14.10
2018-08-31T03:15:13.907Z,14.10
2018-08-31T03:17:43.334Z,14.10
2018-08-31T03:20:12.811Z,14.20
2018-08-31T03:22:42.201Z,14.20
2018-08-31T03:25:11.700Z,14.20
2018-08-31T03:27:41.087Z,14.20
2018-08-31T03:30:10.450Z,14.10
2018-08-31T03:32:39.868Z,14.10
2018-08-31T03:35:09.330Z,14.10
2018-08-31T03:37:38.684Z,14.00
2018-08-31T03:40:08.136Z,14.00
2018-08-31T03:42:37.522Z,14.00
2018-08-31T03:45:07.157Z,14.00
2018-08-31T03:47:36.523Z,14.00
2018-08-31T03:50:06.048Z,13.90
2018-08-31T03:52:35.437Z,13.90
2018-08-31T03:55:04.869Z,13.90
2018-08-31T03:57:34.242Z,13.90
2018-08-31T04:00:03.664Z,14.00
2018-08-31T04:02:33.043Z,13.90
2018-08-31T04:05:02.483Z,13.80
2018-08-31T04:07:32.005Z,13.90
2018-08-31T04:10:01.350Z,13.90
2018-08-31T04:12:30.738Z,13.90
2018-08-31T04:15:00.351Z,13.90
2018-08-31T04:17:29.711Z,13.80
2018-08-31T04:19:59.175Z,13.70
2018-08-31T04:22:28.610Z,13.70
2018-08-31T04:24:58.082Z,13.70
2018-08-31T04:27:27.478Z,13.60
2018-08-31T04:29:56.910Z,13.60
2018-08-31T04:32:26.292Z,13.60
2018-08-31T04:34:55.685Z,13.60
2018-08-31T04:37:25.050Z,13.60
2018-08-31T04:39:54.514Z,13.50
2018-08-31T04:42:23.883Z,13.50
2018-08-31T04:44:53.294Z,13.50
2018-08-31T04:47:22.966Z,13.60
2018-08-31T04:49:52.430Z,13.60
2018-08-31T04:52:21.799Z,13.50
2018-08-31T04:54:51.178Z,13.60
2018-08-31T04:57:20.526Z,13.50
2018-08-31T04:59:49.936Z,13.50
2018-08-31T05:02:19.322Z,13.50
2018-08-31T05:04:48.716Z,13.60
2018-08-31T05:07:18.066Z,13.60
2018-08-31T05:09:47.542Z,13.60
2018-08-31T05:12:16.907Z,13.50
2018-08-31T05:14:46.370Z,13.50
2018-08-31T05:17:15.730Z,13.50
2018-08-31T05:19:45.210Z,13.40
2018-08-31T05:22:14.624Z,13.40
2018-08-31T05:24:44.079Z,13.30
2018-08-31T05:27:13.455Z,13.30
2018-08-31T05:29:42.870Z,13.40
2018-08-31T05:32:12.245Z,13.40
2018-08-31T05:34:41.667Z,13.30
2018-08-31T05:37:11.031Z,13.30
2018-08-31T05:39:40.501Z,13.30
2018-08-31T05:42:09.857Z,13.40
2018-08-31T05:44:39.329Z,13.40
2018-08-31T05:47:09.140Z,13.40
2018-08-31T05:49:38.607Z,13.40
2018-08-31T05:52:07.973Z,13.50
2018-08-31T05:54:37.411Z,13.60
2018-08-31T05:57:06.917Z,13.60
2018-08-31T05:59:36.307Z,13.70
2018-08-31T06:02:05.687Z,13.70
2018-08-31T06:04:35.126Z,13.80
2018-08-31T06:07:04.662Z,13.80
2018-08-31T06:09:34.266Z,13.80
2018-08-31T06:12:03.725Z,13.90
2018-08-31T06:14:33.017Z,14.00
2018-08-31T06:17:02.637Z,14.10
2018-08-31T06:19:32.305Z,14.10
2018-08-31T06:23:04.603Z,14.20
2018-08-31T06:25:34.176Z,14.10
2018-08-31T06:28:03.644Z,14.20
2018-08-31T06:30:33.049Z,14.30
2018-08-31T06:33:02.463Z,14.40
2018-08-31T06:35:31.958Z,14.40
2018-08-31T06:38:01.367Z,14.50
2018-08-31T06:40:30.854Z,14.50
2018-08-31T06:43:00.218Z,14.50
2018-08-31T06:45:29.690Z,14.60
2018-08-31T06:47:59.060Z,14.80
2018-08-31T06:50:28.446Z,14.90
2018-08-31T06:52:57.824Z,14.90
2018-08-31T06:55:27.339Z,14.90
2018-08-31T06:57:56.713Z,14.90
2018-08-31T07:00:26.176Z,15.10
2018-08-31T07:02:55.539Z,15.10
2018-08-31T07:05:24.993Z,15.10
2018-08-31T07:07:54.343Z,15.00
2018-08-31T07:10:23.702Z,15.10
2018-08-31T07:12:53.080Z,15.10
2018-08-31T07:15:22.617Z,15.20
2018-08-31T07:17:51.989Z,15.20
2018-08-31T07:20:21.397Z,15.20
2018-08-31T07:22:50.777Z,15.40
2018-08-31T07:25:20.188Z,15.40
2018-08-31T07:27:49.587Z,15.40
2018-08-31T07:30:18.996Z,15.50
2018-08-31T07:32:48.408Z,15.50
2018-08-31T07:35:17.810Z,15.70
2018-08-31T07:37:47.200Z,15.80
2018-08-31T07:40:16.618Z,15.80
2018-08-31T07:42:45.986Z,15.90
2018-08-31T07:45:15.433Z,16.00
2018-08-31T07:47:44.799Z,16.10
2018-08-31T07:50:14.207Z,16.10
2018-08-31T07:52:43.598Z,16.00
2018-08-31T07:55:13.074Z,15.90
2018-08-31T07:57:42.427Z,16.00
2018-08-31T08:00:11.832Z,16.20
2018-08-31T08:02:41.178Z,16.10
2018-08-31T08:05:10.678Z,16.40
2018-08-31T08:07:40.039Z,16.50
2018-08-31T08:10:09.429Z,16.60
2018-08-31T08:12:38.781Z,16.50
2018-08-31T08:15:08.237Z,16.70
2018-08-31T08:17:37.600Z,16.80
2018-08-31T08:20:07.235Z,16.60
2018-08-31T08:22:36.582Z,16.70
2018-08-31T08:25:06.095Z,16.70
2018-08-31T08:27:35.577Z,16.70
2018-08-31T08:30:05.002Z,16.60
2018-08-31T08:32:34.359Z,16.60
2018-08-31T08:35:03.774Z,16.40
2018-08-31T08:37:33.137Z,16.40
2018-08-31T08:40:02.577Z,16.30
2018-08-31T08:42:32.015Z,16.30
2018-08-31T08:45:01.387Z,16.20
2018-08-31T08:47:30.749Z,16.20
2018-08-31T08:50:00.185Z,16.10
2018-08-31T08:52:29.551Z,16.10
2018-08-31T08:54:59.015Z,16.10
2018-08-31T08:57:28.388Z,16.10
2018-08-31T08:59:57.779Z,16.30
2018-08-31T09:02:27.191Z,16.30
2018-08-31T09:04:56.550Z,16.40
2018-08-31T09:07:25.994Z,16.50
2018-08-31T09:09:55.369Z,16.40
2018-08-31T09:12:25.915Z,16.40
2018-08-31T09:14:55.197Z,16.50
2018-08-31T09:17:24.642Z,16.40
2018-08-31T09:19:53.998Z,16.30
2018-08-31T09:22:23.458Z,16.50
2018-08-31T09:24:52.821Z,16.60
2018-08-31T09:27:22.235Z,16.60
2018-08-31T09:29:51.598Z,16.80
2018-08-31T09:32:26.449Z,16.70
2018-08-31T09:34:55.979Z,16.90
2018-08-31T09:37:25.410Z,17.10
2018-08-31T09:39:54.762Z,17.30
2018-08-31T09:42:24.198Z,17.20
2018-08-31T09:44:53.602Z,17.30
2018-08-31T09:47:23.001Z,17.40
2018-08-31T09:49:52.366Z,17.40
2018-08-31T09:52:21.801Z,17.30
2018-08-31T09:54:51.150Z,17.50
2018-08-31T09:57:20.630Z,17.60
2018-08-31T09:59:49.967Z,17.50
2018-08-31T10:03:23.413Z,17.50
2018-08-31T10:05:53.770Z,17.60
2018-08-31T10:08:24.587Z,17.80
2018-08-31T10:10:54.005Z,17.90
2018-08-31T10:13:23.886Z,17.80
2018-08-31T10:15:53.285Z,18.10
2018-08-31T10:18:22.649Z,18.00
2018-08-31T10:20:53.111Z,18.30
2018-08-31T10:23:22.539Z,18.20
2018-08-31T10:25:53.021Z,18.30
2018-08-31T10:28:22.397Z,18.40
2018-08-31T10:30:51.844Z,18.40
2018-08-31T10:33:21.198Z,18.40
2018-08-31T10:35:50.657Z,18.50
2018-08-31T10:38:20.132Z,18.60
2018-08-31T10:40:49.560Z,18.50
2018-08-31T10:43:18.929Z,18.40
2018-08-31T10:45:48.363Z,18.60
2018-08-31T10:48:17.746Z,18.70
2018-08-31T10:50:47.187Z,18.40
2018-08-31T10:53:16.559Z,18.20
2018-08-31T10:55:45.961Z,18.30
2018-08-31T10:58:15.350Z,18.30
2018-08-31T11:00:44.804Z,18.40
2018-08-31T11:03:14.179Z,18.40
2018-08-31T11:05:43.582Z,18.20
2018-08-31T11:08:12.955Z,18.30
2018-08-31T11:10:42.399Z,18.20
2018-08-31T11:13:11.922Z,18.00
2018-08-31T11:15:41.214Z,18.00
2018-08-31T11:18:10.578Z,18.40
2018-08-31T11:20:40.015Z,18.30
2018-08-31T11:23:09.389Z,18.60
2018-08-31T11:25:38.821Z,18.80
2018-08-31T11:28:08.354Z,18.70
2018-08-31T11:30:37.818Z,18.30
2018-08-31T11:33:07.167Z,18.50
2018-08-31T11:35:36.636Z,18.10
2018-08-31T11:38:06.041Z,17.90
2018-08-31T11:40:35.436Z,17.90
2018-08-31T11:43:05.019Z,18.00
2018-08-31T11:45:34.449Z,18.30
2018-08-31T11:48:04.103Z,18.50
2018-08-31T11:50:33.566Z,18.70
2018-08-31T11:53:03.194Z,18.70
2018-08-31T11:55:32.717Z,18.80
2018-08-31T11:58:02.080Z,18.90
2018-08-31T12:00:31.725Z,18.90
2018-08-31T12:03:01.081Z,18.90
2018-08-31T12:05:30.474Z,18.90
2018-08-31T12:07:59.894Z,18.80
2018-08-31T12:10:29.315Z,18.60
2018-08-31T12:12:58.699Z,18.50
2018-08-31T12:15:28.098Z,18.60
2018-08-31T12:17:57.460Z,18.50
2018-08-31T12:20:26.852Z,18.50
2018-08-31T12:22:56.255Z,18.60
2018-08-31T12:25:25.699Z,18.50
2018-08-31T12:27:55.101Z,18.40
2018-08-31T12:30:24.505Z,18.60
2018-08-31T12:32:53.902Z,18.50
2018-08-31T12:35:23.317Z,18.40
2018-08-31T12:37:52.711Z,18.50
2018-08-31T12:40:22.133Z,18.50
2018-08-31T12:42:51.525Z,18.50
2018-08-31T12:45:20.934Z,18.50
2018-08-31T12:47:50.318Z,18.50
2018-08-31T12:50:19.739Z,18.40
2018-08-31T12:52:49.132Z,18.20
2018-08-31T12:55:18.599Z,18.00
2018-08-31T12:57:48.002Z,17.90
2018-08-31T13:00:17.558Z,17.90
2018-08-31T13:02:46.830Z,17.90
2018-08-31T13:05:16.237Z,17.70
2018-08-31T13:07:45.631Z,17.70
2018-08-31T13:10:15.038Z,17.70
2018-08-31T13:12:44.409Z,17.70
2018-08-31T13:15:13.864Z,17.70
2018-08-31T13:17:43.234Z,17.80
2018-08-31T13:20:12.669Z,17.80
2018-08-31T13:22:42.303Z,17.70
2018-08-31T13:25:11.819Z,17.70
2018-08-31T13:27:41.186Z,17.60
2018-08-31T13:30:10.598Z,17.70
2018-08-31T13:32:39.950Z,17.90
2018-08-31T13:35:09.387Z,17.90
2018-08-31T13:37:38.914Z,17.90
2018-08-31T13:40:08.560Z,18.00
2018-08-31T13:42:37.923Z,18.00
2018-08-31T13:45:07.496Z,18.00
2018-08-31T13:47:36.853Z,18.00
2018-08-31T13:50:06.291Z,18.00
2018-08-31T13:52:35.706Z,18.00
2018-08-31T13:55:05.110Z,17.90
2018-08-31T13:57:34.565Z,17.90
2018-08-31T14:00:04.302Z,17.90
2018-08-31T14:02:33.658Z,17.80
2018-08-31T14:05:03.147Z,17.80
2018-08-31T14:07:32.518Z,17.80
2018-08-31T14:10:01.970Z,17.70
2018-08-31T14:12:31.335Z,17.40
2018-08-31T14:15:00.750Z,17.40
2018-08-31T14:17:30.111Z,17.30
2018-08-31T14:19:59.559Z,17.20
2018-08-31T14:22:28.950Z,17.10
2018-08-31T14:24:58.415Z,17.00
2018-08-31T14:27:27.829Z,17.00
2018-08-31T14:29:57.441Z,17.00
2018-08-31T14:32:26.745Z,17.00
2018-08-31T14:34:56.512Z,16.90
2018-08-31T14:37:25.881Z,16.70
2018-08-31T14:39:55.261Z,16.50
2018-08-31T14:42:24.629Z,16.40
2018-08-31T14:44:54.081Z,16.20
2018-08-31T14:47:23.452Z,16.10
2018-08-31T14:49:52.994Z,16.10
2018-08-31T14:52:22.340Z,16.00
2018-08-31T14:54:51.904Z,16.00
2018-08-31T14:57:52.458Z,15.90
2018-08-31T15:00:21.844Z,15.80
2018-08-31T15:02:51.237Z,15.80
2018-08-31T15:05:20.602Z,15.80
2018-08-31T15:07:51.488Z,15.70
2018-08-31T15:10:20.861Z,15.70
2018-08-31T15:12:50.343Z,15.50
2018-08-31T15:15:19.659Z,15.40
2018-08-31T15:17:49.091Z,15.20
2018-08-31T15:20:18.459Z,15.10
2018-08-31T15:22:47.875Z,15.00
2018-08-31T15:25:17.369Z,15.00
2018-08-31T15:27:46.725Z,15.20
2018-08-31T15:30:16.094Z,15.20
2018-08-31T15:32:45.496Z,15.20
2018-08-31T15:35:15.533Z,15.20
2018-08-31T15:37:44.913Z,15.00
2018-08-31T15:40:14.286Z,14.90
2018-08-31T15:42:43.815Z,14.80
2018-08-31T15:45:13.132Z,14.70
2018-08-31T15:47:42.542Z,14.70
2018-08-31T15:50:11.935Z,14.60
2018-08-31T15:52:41.287Z,14.60
2018-08-31T15:55:10.743Z,14.50
2018-08-31T15:57:40.111Z,14.40
2018-08-31T16:00:10.616Z,14.30
2018-08-31T16:02:40.634Z,14.50
2018-08-31T16:05:11.192Z,14.50
2018-08-31T16:07:40.672Z,14.60
2018-08-31T16:10:10.284Z,14.60
2018-08-31T16:12:39.804Z,14.70
2018-08-31T16:15:09.157Z,14.90
2018-08-31T16:17:38.703Z,14.90
2018-08-31T16:20:08.075Z,14.80
2018-08-31T16:22:37.531Z,15.20
2018-08-31T16:25:07.564Z,15.50
2018-08-31T16:27:37.014Z,15.20
2018-08-31T16:30:06.439Z,14.90
2018-08-31T16:32:35.923Z,15.00
2018-08-31T16:35:05.308Z,14.90
2018-08-31T16:37:34.715Z,14.90
2018-08-31T16:40:04.091Z,15.00
2018-08-31T16:42:33.511Z,15.00
2018-08-31T16:45:02.894Z,15.00
2018-08-31T16:47:32.303Z,14.90
2018-08-31T16:50:01.657Z,14.90
2018-08-31T16:52:31.113Z,14.90
2018-08-31T16:55:00.485Z,14.60
2018-08-31T16:57:29.925Z,14.50
2018-08-31T16:59:59.320Z,14.40
2018-08-31T17:02:28.829Z,14.30
2018-08-31T17:04:58.486Z,14.30
2018-08-31T17:07:27.937Z,14.40
2018-08-31T17:09:57.366Z,14.40
2018-08-31T17:12:26.718Z,14.30
2018-08-31T17:14:56.173Z,14.30
2018-08-31T17:17:25.567Z,14.20
2018-08-31T17:19:55.069Z,14.30
2018-08-31T17:22:24.914Z,14.20
2018-08-31T17:24:54.646Z,14.30
2018-08-31T17:27:29.724Z,14.30
2018-08-31T17:30:03.175Z,14.20
2018-08-31T17:32:37.874Z,14.20
2018-08-31T17:35:12.897Z,14.20
2018-08-31T17:37:42.278Z,14.20
2018-08-31T17:40:11.806Z,14.20
2018-08-31T17:42:42.683Z,14.10
2018-08-31T22:35:20.853Z,13.10
2018-08-31T22:37:50.066Z,13.00
2018-08-31T22:40:19.264Z,12.90
2018-08-31T22:42:48.440Z,12.80
2018-08-31T22:47:57.347Z,12.80
2018-08-31T22:50:26.787Z,12.90
2018-08-31T22:52:56.137Z,12.90
2018-08-31T22:55:25.570Z,12.80
2018-08-31T22:58:01.006Z,12.90
2018-08-31T23:00:31.472Z,12.90
2018-08-31T23:03:01.021Z,12.90
2018-08-31T23:05:30.398Z,12.80
2018-08-31T23:08:01.831Z,12.70
2018-08-31T23:10:31.854Z,12.60
2018-08-31T23:13:01.716Z,12.60
2018-08-31T23:15:31.078Z,12.60
2018-08-31T23:18:00.537Z,12.60
2018-08-31T23:20:29.908Z,12.50
2018-08-31T23:23:04.657Z,12.40
2018-08-31T23:25:39.310Z,12.30
2018-08-31T23:28:08.686Z,12.20
2018-08-31T23:30:38.102Z,12.20
2018-08-31T23:33:07.498Z,12.20
2018-08-31T23:35:36.898Z,12.20
2018-08-31T23:38:06.264Z,12.20
2018-08-31T23:40:35.729Z,12.30
2018-08-31T23:43:05.117Z,12.20
2018-08-31T23:45:34.489Z,12.20
2018-08-31T23:48:03.882Z,12.30
2018-08-31T23:50:33.294Z,12.40
2018-08-31T23:53:02.653Z,12.40
2018-08-31T23:55:32.226Z,12.30
2018-08-31T23:58:01.604Z,12.30
